Terminal Aerodrome Forecast
Issued by NWS

Home | Current Version | Previous Version | Text Only | Print | Product List | Glossary On
Versions: 1 2 3 4 5 6 7 8 9 10 11 12
000
FTUS45 KLKN 201120
TAFEKO
TAF
KEKO 201120Z 2012/2112 08006KT P6SM FEW100 BKN200
     FM201300 25012KT P6SM VCSH BKN050 OVC080
      TEMPO 2014/2018 26022G32KT 5SM RA FEW020 BKN030 OVC050
     FM202000 28023G33KT P6SM BKN060
     FM210100 27006KT P6SM BKN050=

USA.gov is the U.S. government's official web portal to all federal, state and local government web resources and services.